sensor_id;sensor_type;location;lat;lon;timestamp;P1;durP1;ratioP1;P2;durP2;ratioP2
45049;SDS011;61798;48.048;-1.928;2023-09-12T00:00:57;4.32;;;2.75;;
45049;SDS011;61798;48.048;-1.928;2023-09-12T00:03:03;5.18;;;2.83;;
45049;SDS011;61798;48.048;-1.928;2023-09-12T00:05:09;6.05;;;3.55;;
45049;SDS011;61798;48.048;-1.928;2023-09-12T00:07:15;5.50;;;3.30;;
45049;SDS011;61798;48.048;-1.928;2023-09-12T00:09:21;3.45;;;2.50;;
45049;SDS011;61798;48.048;-1.928;2023-09-12T00:11:27;5.20;;;2.90;;
45049;SDS011;61798;48.048;-1.928;2023-09-12T00:13:33;3.40;;;2.08;;
45049;SDS011;61798;48.048;-1.928;2023-09-12T00:15:39;4.30;;;2.72;;
45049;SDS011;61798;48.048;-1.928;2023-09-12T00:17:45;5.45;;;2.38;;
45049;SDS011;61798;48.048;-1.928;2023-09-12T00:19:51;5.85;;;3.17;;
45049;SDS011;61798;48.048;-1.928;2023-09-12T00:21:57;4.05;;;2.63;;
45049;SDS011;61798;48.048;-1.928;2023-09-12T00:24:03;5.03;;;3.35;;
45049;SDS011;61798;48.048;-1.928;2023-09-12T00:26:09;6.28;;;2.97;;
45049;SDS011;61798;48.048;-1.928;2023-09-12T00:28:15;6.70;;;3.15;;
45049;SDS011;61798;48.048;-1.928;2023-09-12T00:30:21;5.07;;;3.17;;
45049;SDS011;61798;48.048;-1.928;2023-09-12T00:32:26;5.13;;;2.83;;
45049;SDS011;61798;48.048;-1.928;2023-09-12T00:34:33;7.40;;;3.33;;
45049;SDS011;61798;48.048;-1.928;2023-09-12T00:36:39;5.57;;;2.50;;
45049;SDS011;61798;48.048;-1.928;2023-09-12T00:38:45;6.03;;;3.28;;
45049;SDS011;61798;48.048;-1.928;2023-09-12T00:40:50;5.90;;;2.92;;
45049;SDS011;61798;48.048;-1.928;2023-09-12T00:42:57;6.60;;;3.20;;
45049;SDS011;61798;48.048;-1.928;2023-09-12T00:45:05;5.60;;;3.30;;
45049;SDS011;61798;48.048;-1.928;2023-09-12T00:47:11;4.57;;;2.78;;
45049;SDS011;61798;48.048;-1.928;2023-09-12T00:49:17;6.93;;;3.13;;
45049;SDS011;61798;48.048;-1.928;2023-09-12T00:51:24;4.40;;;2.88;;
45049;SDS011;61798;48.048;-1.928;2023-09-12T00:53:31;5.72;;;2.90;;
45049;SDS011;61798;48.048;-1.928;2023-09-12T00:55:38;4.00;;;2.85;;
45049;SDS011;61798;48.048;-1.928;2023-09-12T00:57:49;5.88;;;3.20;;
45049;SDS011;61798;48.048;-1.928;2023-09-12T00:59:56;6.28;;;2.72;;
45049;SDS011;61798;48.048;-1.928;2023-09-12T01:02:03;5.65;;;2.88;;
45049;SDS011;61798;48.048;-1.928;2023-09-12T01:04:09;4.88;;;2.65;;
45049;SDS011;61798;48.048;-1.928;2023-09-12T01:06:17;4.45;;;3.13;;
45049;SDS011;61798;48.048;-1.928;2023-09-12T01:08:27;6.00;;;2.92;;
45049;SDS011;61798;48.048;-1.928;2023-09-12T01:10:33;5.55;;;3.03;;
45049;SDS011;61798;48.048;-1.928;2023-09-12T01:12:39;7.45;;;3.28;;
45049;SDS011;61798;48.048;-1.928;2023-09-12T01:14:46;6.53;;;3.33;;
45049;SDS011;61798;48.048;-1.928;2023-09-12T01:16:52;7.60;;;3.55;;
45049;SDS011;61798;48.048;-1.928;2023-09-12T01:18:58;7.65;;;3.67;;
45049;SDS011;61798;48.048;-1.928;2023-09-12T01:23:43;6.10;;;3.65;;
45049;SDS011;61798;48.048;-1.928;2023-09-12T01:26:07;4.70;;;3.35;;
45049;SDS011;61798;48.048;-1.928;2023-09-12T01:28:19;6.78;;;4.13;;
45049;SDS011;61798;48.048;-1.928;2023-09-12T01:30:30;7.15;;;3.17;;
45049;SDS011;61798;48.048;-1.928;2023-09-12T01:32:38;5.30;;;3.90;;
45049;SDS011;61798;48.048;-1.928;2023-09-12T01:34:45;8.02;;;3.92;;
45049;SDS011;61798;48.048;-1.928;2023-09-12T01:36:51;8.85;;;4.03;;
45049;SDS011;61798;48.048;-1.928;2023-09-12T01:38:57;6.68;;;3.80;;
45049;SDS011;61798;48.048;-1.928;2023-09-12T01:41:03;5.47;;;3.25;;
45049;SDS011;61798;48.048;-1.928;2023-09-12T01:43:09;5.78;;;3.58;;
45049;SDS011;61798;48.048;-1.928;2023-09-12T01:45:16;7.53;;;4.32;;
45049;SDS011;61798;48.048;-1.928;2023-09-12T01:47:23;8.65;;;4.18;;
45049;SDS011;61798;48.048;-1.928;2023-09-12T01:49:31;7.45;;;4.20;;
45049;SDS011;61798;48.048;-1.928;2023-09-12T01:51:38;9.20;;;4.63;;
45049;SDS011;61798;48.048;-1.928;2023-09-12T01:53:45;6.20;;;4.07;;
45049;SDS011;61798;48.048;-1.928;2023-09-12T01:55:52;6.47;;;4.03;;
45049;SDS011;61798;48.048;-1.928;2023-09-12T01:58:00;8.60;;;3.58;;
45049;SDS011;61798;48.048;-1.928;2023-09-12T02:00:07;8.95;;;3.92;;
45049;SDS011;61798;48.048;-1.928;2023-09-12T02:02:17;6.93;;;4.10;;
45049;SDS011;61798;48.048;-1.928;2023-09-12T02:04:23;6.05;;;3.28;;
45049;SDS011;61798;48.048;-1.928;2023-09-12T02:06:29;7.72;;;4.18;;
45049;SDS011;61798;48.048;-1.928;2023-09-12T02:08:35;9.13;;;4.80;;
45049;SDS011;61798;48.048;-1.928;2023-09-12T02:10:41;7.30;;;3.85;;
45049;SDS011;61798;48.048;-1.928;2023-09-12T02:12:47;8.07;;;4.25;;
45049;SDS011;61798;48.048;-1.928;2023-09-12T02:14:53;9.50;;;5.10;;
45049;SDS011;61798;48.048;-1.928;2023-09-12T02:16:59;6.85;;;4.38;;
45049;SDS011;61798;48.048;-1.928;2023-09-12T02:19:05;9.07;;;4.90;;
45049;SDS011;61798;48.048;-1.928;2023-09-12T02:21:12;6.63;;;4.22;;
45049;SDS011;61798;48.048;-1.928;2023-09-12T02:23:18;9.95;;;5.47;;
45049;SDS011;61798;48.048;-1.928;2023-09-12T02:25:24;10.48;;;4.88;;
45049;SDS011;61798;48.048;-1.928;2023-09-12T02:27:30;9.68;;;5.38;;
45049;SDS011;61798;48.048;-1.928;2023-09-12T02:29:38;10.07;;;5.40;;
45049;SDS011;61798;48.048;-1.928;2023-09-12T02:31:45;7.78;;;4.68;;
45049;SDS011;61798;48.048;-1.928;2023-09-12T02:33:51;7.97;;;5.47;;
45049;SDS011;61798;48.048;-1.928;2023-09-12T02:35:57;7.53;;;4.63;;
45049;SDS011;61798;48.048;-1.928;2023-09-12T02:38:03;7.15;;;4.57;;
45049;SDS011;61798;48.048;-1.928;2023-09-12T02:40:09;10.52;;;5.10;;
45049;SDS011;61798;48.048;-1.928;2023-09-12T02:42:17;12.30;;;4.97;;
45049;SDS011;61798;48.048;-1.928;2023-09-12T02:44:23;7.32;;;4.85;;
45049;SDS011;61798;48.048;-1.928;2023-09-12T02:46:29;9.63;;;4.80;;
45049;SDS011;61798;48.048;-1.928;2023-09-12T02:48:35;8.93;;;5.45;;
45049;SDS011;61798;48.048;-1.928;2023-09-12T02:50:41;6.90;;;5.18;;
45049;SDS011;61798;48.048;-1.928;2023-09-12T02:52:47;7.07;;;4.43;;
45049;SDS011;61798;48.048;-1.928;2023-09-12T02:54:53;7.40;;;4.65;;
45049;SDS011;61798;48.048;-1.928;2023-09-12T02:56:59;13.23;;;5.53;;
45049;SDS011;61798;48.048;-1.928;2023-09-12T02:59:04;8.45;;;4.35;;
45049;SDS011;61798;48.048;-1.928;2023-09-12T03:01:14;9.32;;;4.47;;
45049;SDS011;61798;48.048;-1.928;2023-09-12T03:03:22;7.50;;;5.25;;
45049;SDS011;61798;48.048;-1.928;2023-09-12T03:05:28;10.13;;;5.70;;
45049;SDS011;61798;48.048;-1.928;2023-09-12T03:07:34;7.45;;;4.18;;
45049;SDS011;61798;48.048;-1.928;2023-09-12T03:09:40;11.23;;;5.45;;
45049;SDS011;61798;48.048;-1.928;2023-09-12T03:11:46;11.60;;;5.70;;
45049;SDS011;61798;48.048;-1.928;2023-09-12T03:13:52;9.27;;;5.72;;
45049;SDS011;61798;48.048;-1.928;2023-09-12T03:15:58;8.80;;;5.40;;
45049;SDS011;61798;48.048;-1.928;2023-09-12T03:18:04;12.30;;;5.72;;
45049;SDS011;61798;48.048;-1.928;2023-09-12T03:20:11;11.98;;;5.72;;
45049;SDS011;61798;48.048;-1.928;2023-09-12T03:22:17;11.43;;;5.25;;
45049;SDS011;61798;48.048;-1.928;2023-09-12T03:24:23;9.90;;;5.18;;
45049;SDS011;61798;48.048;-1.928;2023-09-12T03:26:30;9.82;;;6.35;;
45049;SDS011;61798;48.048;-1.928;2023-09-12T03:28:39;8.00;;;4.35;;
45049;SDS011;61798;48.048;-1.928;2023-09-12T03:30:46;10.00;;;5.95;;
45049;SDS011;61798;48.048;-1.928;2023-09-12T03:32:52;8.52;;;5.25;;
45049;SDS011;61798;48.048;-1.928;2023-09-12T03:34:58;10.68;;;6.05;;
45049;SDS011;61798;48.048;-1.928;2023-09-12T03:37:04;15.30;;;6.22;;
45049;SDS011;61798;48.048;-1.928;2023-09-12T03:39:10;9.27;;;5.75;;
45049;SDS011;61798;48.048;-1.928;2023-09-12T03:41:18;12.85;;;6.30;;
45049;SDS011;61798;48.048;-1.928;2023-09-12T03:43:24;11.68;;;6.05;;
45049;SDS011;61798;48.048;-1.928;2023-09-12T03:45:30;10.35;;;5.53;;
45049;SDS011;61798;48.048;-1.928;2023-09-12T03:47:36;11.13;;;5.65;;
45049;SDS011;61798;48.048;-1.928;2023-09-12T03:49:42;9.35;;;5.68;;
45049;SDS011;61798;48.048;-1.928;2023-09-12T03:51:48;8.25;;;5.28;;
45049;SDS011;61798;48.048;-1.928;2023-09-12T03:53:54;7.82;;;5.32;;
45049;SDS011;61798;48.048;-1.928;2023-09-12T03:56:00;9.02;;;6.07;;
45049;SDS011;61798;48.048;-1.928;2023-09-12T03:58:06;10.07;;;6.22;;
45049;SDS011;61798;48.048;-1.928;2023-09-12T04:00:12;12.68;;;6.35;;
45049;SDS011;61798;48.048;-1.928;2023-09-12T04:02:19;9.48;;;5.85;;
45049;SDS011;61798;48.048;-1.928;2023-09-12T04:04:25;8.27;;;5.47;;
45049;SDS011;61798;48.048;-1.928;2023-09-12T04:06:31;8.70;;;4.97;;
45049;SDS011;61798;48.048;-1.928;2023-09-12T04:08:36;8.65;;;5.07;;
45049;SDS011;61798;48.048;-1.928;2023-09-12T04:10:43;13.55;;;6.13;;
45049;SDS011;61798;48.048;-1.928;2023-09-12T04:12:49;10.75;;;6.18;;
45049;SDS011;61798;48.048;-1.928;2023-09-12T04:14:55;9.35;;;5.95;;
45049;SDS011;61798;48.048;-1.928;2023-09-12T04:17:01;10.48;;;5.70;;
45049;SDS011;61798;48.048;-1.928;2023-09-12T04:19:09;13.63;;;6.10;;
45049;SDS011;61798;48.048;-1.928;2023-09-12T04:21:15;11.25;;;5.85;;
45049;SDS011;61798;48.048;-1.928;2023-09-12T04:23:20;9.13;;;5.43;;
45049;SDS011;61798;48.048;-1.928;2023-09-12T04:25:26;12.05;;;6.45;;
45049;SDS011;61798;48.048;-1.928;2023-09-12T04:27:33;12.15;;;6.50;;
45049;SDS011;61798;48.048;-1.928;2023-09-12T04:29:39;13.27;;;7.15;;
45049;SDS011;61798;48.048;-1.928;2023-09-12T04:31:45;15.25;;;7.82;;
45049;SDS011;61798;48.048;-1.928;2023-09-12T04:33:52;12.18;;;7.05;;
45049;SDS011;61798;48.048;-1.928;2023-09-12T04:36:00;14.07;;;7.03;;
45049;SDS011;61798;48.048;-1.928;2023-09-12T04:38:06;16.33;;;7.30;;
45049;SDS011;61798;48.048;-1.928;2023-09-12T04:40:12;13.50;;;7.65;;
45049;SDS011;61798;48.048;-1.928;2023-09-12T04:42:18;11.57;;;6.70;;
45049;SDS011;61798;48.048;-1.928;2023-09-12T04:44:24;15.48;;;6.55;;
45049;SDS011;61798;48.048;-1.928;2023-09-12T04:46:30;10.63;;;6.47;;
45049;SDS011;61798;48.048;-1.928;2023-09-12T04:48:36;9.30;;;5.90;;
45049;SDS011;61798;48.048;-1.928;2023-09-12T04:50:42;8.98;;;5.50;;
45049;SDS011;61798;48.048;-1.928;2023-09-12T04:52:48;9.80;;;5.70;;
45049;SDS011;61798;48.048;-1.928;2023-09-12T04:54:55;8.23;;;5.40;;
45049;SDS011;61798;48.048;-1.928;2023-09-12T04:57:02;9.25;;;5.32;;
45049;SDS011;61798;48.048;-1.928;2023-09-12T04:59:09;8.00;;;5.60;;
45049;SDS011;61798;48.048;-1.928;2023-09-12T05:01:16;8.27;;;5.07;;
45049;SDS011;61798;48.048;-1.928;2023-09-12T05:03:26;7.82;;;5.18;;
45049;SDS011;61798;48.048;-1.928;2023-09-12T05:05:40;7.07;;;4.57;;
45049;SDS011;61798;48.048;-1.928;2023-09-12T05:07:57;5.97;;;4.03;;
45049;SDS011;61798;48.048;-1.928;2023-09-12T05:10:05;5.75;;;3.88;;
45049;SDS011;61798;48.048;-1.928;2023-09-12T05:12:13;7.10;;;4.90;;
45049;SDS011;61798;48.048;-1.928;2023-09-12T05:14:24;7.82;;;4.68;;
45049;SDS011;61798;48.048;-1.928;2023-09-12T05:16:36;7.10;;;4.22;;
45049;SDS011;61798;48.048;-1.928;2023-09-12T05:18:44;6.13;;;4.32;;
45049;SDS011;61798;48.048;-1.928;2023-09-12T05:20:53;5.38;;;3.38;;
45049;SDS011;61798;48.048;-1.928;2023-09-12T05:23:03;6.55;;;4.28;;
45049;SDS011;61798;48.048;-1.928;2023-09-12T05:25:16;5.50;;;3.35;;
45049;SDS011;61798;48.048;-1.928;2023-09-12T05:27:22;4.82;;;3.42;;
45049;SDS011;61798;48.048;-1.928;2023-09-12T05:29:33;6.35;;;4.00;;
45049;SDS011;61798;48.048;-1.928;2023-09-12T05:31:46;6.15;;;4.07;;
45049;SDS011;61798;48.048;-1.928;2023-09-12T05:33:57;5.32;;;3.47;;
45049;SDS011;61798;48.048;-1.928;2023-09-12T05:36:05;5.43;;;3.80;;
45049;SDS011;61798;48.048;-1.928;2023-09-12T05:38:15;6.25;;;3.90;;
45049;SDS011;61798;48.048;-1.928;2023-09-12T05:40:28;5.55;;;4.00;;
45049;SDS011;61798;48.048;-1.928;2023-09-12T05:42:53;5.22;;;3.78;;
45049;SDS011;61798;48.048;-1.928;2023-09-12T05:45:05;5.53;;;3.10;;
45049;SDS011;61798;48.048;-1.928;2023-09-12T05:47:17;6.68;;;3.85;;
45049;SDS011;61798;48.048;-1.928;2023-09-12T05:49:32;7.97;;;4.43;;
45049;SDS011;61798;48.048;-1.928;2023-09-12T05:51:49;7.10;;;4.30;;
45049;SDS011;61798;48.048;-1.928;2023-09-12T05:54:00;6.22;;;3.92;;
45049;SDS011;61798;48.048;-1.928;2023-09-12T05:56:10;6.22;;;3.42;;
45049;SDS011;61798;48.048;-1.928;2023-09-12T05:58:17;5.32;;;3.88;;
45049;SDS011;61798;48.048;-1.928;2023-09-12T06:00:34;6.18;;;4.18;;
45049;SDS011;61798;48.048;-1.928;2023-09-12T06:02:46;6.03;;;4.28;;
45049;SDS011;61798;48.048;-1.928;2023-09-12T06:04:55;5.03;;;3.10;;
45049;SDS011;61798;48.048;-1.928;2023-09-12T06:07:07;5.40;;;3.67;;
45049;SDS011;61798;48.048;-1.928;2023-09-12T06:09:23;7.10;;;3.88;;
45049;SDS011;61798;48.048;-1.928;2023-09-12T06:11:29;5.68;;;3.42;;
45049;SDS011;61798;48.048;-1.928;2023-09-12T06:13:37;4.95;;;3.25;;
45049;SDS011;61798;48.048;-1.928;2023-09-12T06:15:43;5.60;;;3.85;;
45049;SDS011;61798;48.048;-1.928;2023-09-12T06:17:49;5.53;;;3.78;;
45049;SDS011;61798;48.048;-1.928;2023-09-12T06:19:55;5.65;;;3.75;;
45049;SDS011;61798;48.048;-1.928;2023-09-12T06:22:02;6.80;;;4.28;;
45049;SDS011;61798;48.048;-1.928;2023-09-12T06:24:11;5.15;;;3.40;;
45049;SDS011;61798;48.048;-1.928;2023-09-12T06:26:19;5.45;;;3.70;;
45049;SDS011;61798;48.048;-1.928;2023-09-12T06:28:26;6.07;;;3.72;;
45049;SDS011;61798;48.048;-1.928;2023-09-12T06:30:32;7.57;;;3.80;;
45049;SDS011;61798;48.048;-1.928;2023-09-12T06:32:39;5.80;;;3.75;;
45049;SDS011;61798;48.048;-1.928;2023-09-12T06:34:45;4.22;;;3.40;;
45049;SDS011;61798;48.048;-1.928;2023-09-12T06:36:51;4.10;;;3.25;;
45049;SDS011;61798;48.048;-1.928;2023-09-12T06:38:57;7.30;;;4.30;;
45049;SDS011;61798;48.048;-1.928;2023-09-12T06:41:04;5.07;;;3.42;;
45049;SDS011;61798;48.048;-1.928;2023-09-12T06:43:10;6.38;;;3.53;;
45049;SDS011;61798;48.048;-1.928;2023-09-12T06:45:16;4.68;;;3.45;;
45049;SDS011;61798;48.048;-1.928;2023-09-12T06:47:39;5.38;;;3.60;;
45049;SDS011;61798;48.048;-1.928;2023-09-12T06:49:45;4.15;;;3.00;;
45049;SDS011;61798;48.048;-1.928;2023-09-12T06:51:52;5.40;;;3.40;;
45049;SDS011;61798;48.048;-1.928;2023-09-12T06:53:58;4.18;;;3.00;;
45049;SDS011;61798;48.048;-1.928;2023-09-12T06:56:07;5.70;;;3.33;;
45049;SDS011;61798;48.048;-1.928;2023-09-12T06:58:22;4.80;;;3.33;;
45049;SDS011;61798;48.048;-1.928;2023-09-12T07:00:29;5.38;;;3.28;;
45049;SDS011;61798;48.048;-1.928;2023-09-12T07:02:35;7.03;;;3.65;;
45049;SDS011;61798;48.048;-1.928;2023-09-12T07:04:41;5.68;;;3.58;;
45049;SDS011;61798;48.048;-1.928;2023-09-12T07:06:51;5.07;;;3.50;;
45049;SDS011;61798;48.048;-1.928;2023-09-12T07:09:01;5.43;;;3.67;;
45049;SDS011;61798;48.048;-1.928;2023-09-12T07:11:10;5.50;;;3.60;;
45049;SDS011;61798;48.048;-1.928;2023-09-12T07:13:16;5.50;;;3.38;;
45049;SDS011;61798;48.048;-1.928;2023-09-12T07:15:23;5.47;;;3.42;;
45049;SDS011;61798;48.048;-1.928;2023-09-12T07:17:29;7.13;;;4.00;;
45049;SDS011;61798;48.048;-1.928;2023-09-12T07:19:36;6.00;;;4.40;;
45049;SDS011;61798;48.048;-1.928;2023-09-12T07:21:42;4.50;;;3.20;;
45049;SDS011;61798;48.048;-1.928;2023-09-12T07:23:48;5.63;;;3.72;;
45049;SDS011;61798;48.048;-1.928;2023-09-12T07:25:55;5.78;;;4.25;;
45049;SDS011;61798;48.048;-1.928;2023-09-12T07:28:03;6.45;;;3.72;;
45049;SDS011;61798;48.048;-1.928;2023-09-12T07:30:09;8.02;;;3.67;;
45049;SDS011;61798;48.048;-1.928;2023-09-12T07:32:16;4.95;;;3.40;;
45049;SDS011;61798;48.048;-1.928;2023-09-12T07:34:23;11.05;;;4.18;;
45049;SDS011;61798;48.048;-1.928;2023-09-12T07:36:29;6.78;;;4.00;;
45049;SDS011;61798;48.048;-1.928;2023-09-12T07:38:36;5.75;;;3.88;;
45049;SDS011;61798;48.048;-1.928;2023-09-12T07:40:43;5.38;;;3.58;;
45049;SDS011;61798;48.048;-1.928;2023-09-12T07:42:49;8.75;;;4.70;;
45049;SDS011;61798;48.048;-1.928;2023-09-12T07:44:57;7.55;;;4.25;;
45049;SDS011;61798;48.048;-1.928;2023-09-12T07:47:03;7.63;;;4.32;;
45049;SDS011;61798;48.048;-1.928;2023-09-12T07:49:09;9.68;;;4.07;;
45049;SDS011;61798;48.048;-1.928;2023-09-12T07:51:16;8.00;;;3.50;;
45049;SDS011;61798;48.048;-1.928;2023-09-12T07:53:23;6.00;;;3.88;;
45049;SDS011;61798;48.048;-1.928;2023-09-12T07:55:30;7.57;;;4.60;;
45049;SDS011;61798;48.048;-1.928;2023-09-12T07:57:41;7.53;;;4.07;;
45049;SDS011;61798;48.048;-1.928;2023-09-12T07:59:49;5.85;;;4.20;;
45049;SDS011;61798;48.048;-1.928;2023-09-12T08:01:55;9.88;;;4.35;;
45049;SDS011;61798;48.048;-1.928;2023-09-12T08:04:01;6.10;;;4.30;;
45049;SDS011;61798;48.048;-1.928;2023-09-12T08:18:04;5.45;;;3.95;;
45049;SDS011;61798;48.048;-1.928;2023-09-12T08:20:10;7.28;;;4.22;;
45049;SDS011;61798;48.048;-1.928;2023-09-12T08:22:16;7.05;;;4.35;;
45049;SDS011;61798;48.048;-1.928;2023-09-12T08:24:23;9.68;;;4.22;;
45049;SDS011;61798;48.048;-1.928;2023-09-12T08:26:29;6.25;;;4.30;;
45049;SDS011;61798;48.048;-1.928;2023-09-12T08:28:35;7.70;;;5.05;;
45049;SDS011;61798;48.048;-1.928;2023-09-12T08:30:42;8.40;;;3.50;;
45049;SDS011;61798;48.048;-1.928;2023-09-12T08:32:50;4.38;;;2.58;;
45049;SDS011;61798;48.048;-1.928;2023-09-12T08:34:56;7.28;;;3.83;;
45049;SDS011;61798;48.048;-1.928;2023-09-12T08:37:03;4.32;;;3.45;;
45049;SDS011;61798;48.048;-1.928;2023-09-12T08:39:11;5.38;;;3.35;;
45049;SDS011;61798;48.048;-1.928;2023-09-12T08:41:20;5.35;;;3.00;;
45049;SDS011;61798;48.048;-1.928;2023-09-12T08:43:26;3.75;;;2.40;;
45049;SDS011;61798;48.048;-1.928;2023-09-12T08:45:32;3.83;;;2.78;;
45049;SDS011;61798;48.048;-1.928;2023-09-12T08:47:42;4.70;;;3.03;;
45049;SDS011;61798;48.048;-1.928;2023-09-12T08:49:49;4.47;;;2.53;;
45049;SDS011;61798;48.048;-1.928;2023-09-12T08:51:55;4.82;;;3.30;;
45049;SDS011;61798;48.048;-1.928;2023-09-12T08:54:01;4.47;;;2.80;;
45049;SDS011;61798;48.048;-1.928;2023-09-12T08:56:09;3.13;;;1.98;;
45049;SDS011;61798;48.048;-1.928;2023-09-12T08:58:17;3.65;;;2.20;;
45049;SDS011;61798;48.048;-1.928;2023-09-12T09:00:23;6.43;;;2.03;;
45049;SDS011;61798;48.048;-1.928;2023-09-12T09:02:30;2.67;;;1.60;;
45049;SDS011;61798;48.048;-1.928;2023-09-12T09:04:38;4.70;;;1.83;;
45049;SDS011;61798;48.048;-1.928;2023-09-12T09:06:45;2.65;;;1.58;;
45049;SDS011;61798;48.048;-1.928;2023-09-12T09:08:52;3.90;;;1.45;;
45049;SDS011;61798;48.048;-1.928;2023-09-12T09:11:00;2.05;;;1.33;;
45049;SDS011;61798;48.048;-1.928;2023-09-12T09:13:12;1.58;;;1.10;;
45049;SDS011;61798;48.048;-1.928;2023-09-12T09:15:22;1.83;;;1.17;;
45049;SDS011;61798;48.048;-1.928;2023-09-12T09:17:37;4.65;;;1.92;;
45049;SDS011;61798;48.048;-1.928;2023-09-12T09:19:44;2.65;;;1.52;;
45049;SDS011;61798;48.048;-1.928;2023-09-12T09:21:50;3.45;;;1.52;;
45049;SDS011;61798;48.048;-1.928;2023-09-12T09:24:00;5.95;;;2.10;;
45049;SDS011;61798;48.048;-1.928;2023-09-12T09:26:09;7.45;;;1.55;;
45049;SDS011;61798;48.048;-1.928;2023-09-12T09:28:17;3.40;;;1.25;;
45049;SDS011;61798;48.048;-1.928;2023-09-12T09:30:44;1.70;;;1.60;;
45049;SDS011;61798;48.048;-1.928;2023-09-12T09:32:53;2.80;;;1.30;;
45049;SDS011;61798;48.048;-1.928;2023-09-12T09:35:00;5.38;;;1.42;;
45049;SDS011;61798;48.048;-1.928;2023-09-12T09:37:06;1.65;;;1.23;;
45049;SDS011;61798;48.048;-1.928;2023-09-12T09:39:19;3.83;;;1.55;;
45049;SDS011;61798;48.048;-1.928;2023-09-12T09:41:28;1.60;;;1.25;;
45049;SDS011;61798;48.048;-1.928;2023-09-12T09:43:34;3.08;;;1.08;;
45049;SDS011;61798;48.048;-1.928;2023-09-12T09:45:44;5.47;;;1.50;;
45049;SDS011;61798;48.048;-1.928;2023-09-12T09:47:56;3.33;;;1.40;;
45049;SDS011;61798;48.048;-1.928;2023-09-12T09:50:04;2.53;;;1.52;;
45049;SDS011;61798;48.048;-1.928;2023-09-12T09:52:10;5.82;;;1.70;;
45049;SDS011;61798;48.048;-1.928;2023-09-12T09:54:16;2.28;;;1.10;;
45049;SDS011;61798;48.048;-1.928;2023-09-12T09:56:22;4.22;;;1.55;;
45049;SDS011;61798;48.048;-1.928;2023-09-12T09:58:28;3.15;;;1.33;;
45049;SDS011;61798;48.048;-1.928;2023-09-12T10:00:36;1.13;;;1.00;;
45049;SDS011;61798;48.048;-1.928;2023-09-12T10:02:43;4.38;;;1.40;;
45049;SDS011;61798;48.048;-1.928;2023-09-12T10:04:50;4.38;;;1.40;;
45049;SDS011;61798;48.048;-1.928;2023-09-12T10:06:59;2.45;;;1.50;;
45049;SDS011;61798;48.048;-1.928;2023-09-12T10:09:05;2.45;;;1.63;;
45049;SDS011;61798;48.048;-1.928;2023-09-12T10:11:15;3.13;;;1.55;;
45049;SDS011;61798;48.048;-1.928;2023-09-12T10:13:22;1.65;;;1.15;;
45049;SDS011;61798;48.048;-1.928;2023-09-12T10:15:32;1.45;;;1.25;;
45049;SDS011;61798;48.048;-1.928;2023-09-12T10:17:42;3.42;;;1.67;;
45049;SDS011;61798;48.048;-1.928;2023-09-12T10:19:54;5.55;;;2.00;;
45049;SDS011;61798;48.048;-1.928;2023-09-12T10:22:09;2.92;;;1.70;;
45049;SDS011;61798;48.048;-1.928;2023-09-12T10:24:27;4.93;;;1.60;;
45049;SDS011;61798;48.048;-1.928;2023-09-12T10:26:35;3.90;;;1.85;;
45049;SDS011;61798;48.048;-1.928;2023-09-12T10:28:41;2.67;;;1.60;;
45049;SDS011;61798;48.048;-1.928;2023-09-12T10:30:48;4.40;;;1.70;;
45049;SDS011;61798;48.048;-1.928;2023-09-12T10:32:55;2.25;;;1.27;;
45049;SDS011;61798;48.048;-1.928;2023-09-12T10:35:03;4.88;;;1.45;;
45049;SDS011;61798;48.048;-1.928;2023-09-12T10:37:12;4.75;;;1.90;;
45049;SDS011;61798;48.048;-1.928;2023-09-12T10:39:21;2.35;;;2.00;;
45049;SDS011;61798;48.048;-1.928;2023-09-12T10:41:29;3.45;;;2.42;;
45049;SDS011;61798;48.048;-1.928;2023-09-12T10:43:36;2.55;;;1.90;;
45049;SDS011;61798;48.048;-1.928;2023-09-12T10:45:44;4.13;;;2.30;;
45049;SDS011;61798;48.048;-1.928;2023-09-12T10:47:50;3.13;;;2.20;;
45049;SDS011;61798;48.048;-1.928;2023-09-12T10:49:56;4.40;;;2.08;;
45049;SDS011;61798;48.048;-1.928;2023-09-12T10:52:03;3.47;;;2.13;;
45049;SDS011;61798;48.048;-1.928;2023-09-12T10:54:12;4.80;;;2.20;;
45049;SDS011;61798;48.048;-1.928;2023-09-12T10:56:20;2.90;;;1.88;;
45049;SDS011;61798;48.048;-1.928;2023-09-12T10:58:27;3.65;;;2.08;;
45049;SDS011;61798;48.048;-1.928;2023-09-12T11:00:33;7.30;;;2.28;;
45049;SDS011;61798;48.048;-1.928;2023-09-12T11:02:40;3.78;;;2.00;;
45049;SDS011;61798;48.048;-1.928;2023-09-12T11:04:46;4.47;;;2.42;;
45049;SDS011;61798;48.048;-1.928;2023-09-12T11:06:52;4.03;;;2.10;;
45049;SDS011;61798;48.048;-1.928;2023-09-12T11:11:20;4.28;;;2.63;;
45049;SDS011;61798;48.048;-1.928;2023-09-12T11:13:26;6.50;;;1.73;;
45049;SDS011;61798;48.048;-1.928;2023-09-12T11:18:16;2.53;;;1.85;;
45049;SDS011;61798;48.048;-1.928;2023-09-12T11:20:23;4.60;;;1.92;;
45049;SDS011;61798;48.048;-1.928;2023-09-12T11:22:30;3.40;;;1.55;;
45049;SDS011;61798;48.048;-1.928;2023-09-12T11:24:43;2.60;;;1.63;;
45049;SDS011;61798;48.048;-1.928;2023-09-12T11:27:00;3.45;;;1.50;;
45049;SDS011;61798;48.048;-1.928;2023-09-12T11:29:11;3.35;;;1.58;;
45049;SDS011;61798;48.048;-1.928;2023-09-12T11:31:27;3.38;;;1.60;;
45049;SDS011;61798;48.048;-1.928;2023-09-12T11:33:33;2.78;;;1.60;;
45049;SDS011;61798;48.048;-1.928;2023-09-12T11:35:39;3.30;;;1.65;;
45049;SDS011;61798;48.048;-1.928;2023-09-12T11:37:49;3.38;;;1.40;;
45049;SDS011;61798;48.048;-1.928;2023-09-12T11:39:56;3.38;;;1.70;;
45049;SDS011;61798;48.048;-1.928;2023-09-12T11:42:03;2.08;;;1.13;;
45049;SDS011;61798;48.048;-1.928;2023-09-12T11:44:10;2.30;;;1.30;;
45049;SDS011;61798;48.048;-1.928;2023-09-12T11:46:17;2.22;;;1.45;;
45049;SDS011;61798;48.048;-1.928;2023-09-12T11:48:23;2.08;;;1.85;;
45049;SDS011;61798;48.048;-1.928;2023-09-12T11:52:36;5.45;;;1.60;;
45049;SDS011;61798;48.048;-1.928;2023-09-12T11:54:45;3.53;;;1.40;;
45049;SDS011;61798;48.048;-1.928;2023-09-12T11:56:51;2.10;;;1.30;;
45049;SDS011;61798;48.048;-1.928;2023-09-12T11:59:05;1.55;;;1.20;;
45049;SDS011;61798;48.048;-1.928;2023-09-12T12:01:11;1.30;;;1.00;;
45049;SDS011;61798;48.048;-1.928;2023-09-12T12:03:20;3.85;;;1.50;;
45049;SDS011;61798;48.048;-1.928;2023-09-12T12:05:28;1.60;;;1.13;;
45049;SDS011;61798;48.048;-1.928;2023-09-12T12:07:34;1.42;;;1.02;;
45049;SDS011;61798;48.048;-1.928;2023-09-12T12:09:40;2.00;;;1.35;;
45049;SDS011;61798;48.048;-1.928;2023-09-12T12:11:46;1.73;;;1.10;;
45049;SDS011;61798;48.048;-1.928;2023-09-12T12:13:52;2.05;;;0.90;;
45049;SDS011;61798;48.048;-1.928;2023-09-12T12:15:58;2.13;;;0.88;;
45049;SDS011;61798;48.048;-1.928;2023-09-12T12:18:04;2.03;;;1.20;;
45049;SDS011;61798;48.048;-1.928;2023-09-12T12:20:11;2.83;;;1.13;;
45049;SDS011;61798;48.048;-1.928;2023-09-12T12:22:17;1.23;;;1.00;;
45049;SDS011;61798;48.048;-1.928;2023-09-12T12:24:23;1.77;;;1.05;;
45049;SDS011;61798;48.048;-1.928;2023-09-12T12:26:30;2.00;;;1.00;;
45049;SDS011;61798;48.048;-1.928;2023-09-12T12:28:36;2.78;;;1.17;;
45049;SDS011;61798;48.048;-1.928;2023-09-12T12:30:42;0.82;;;0.82;;
45049;SDS011;61798;48.048;-1.928;2023-09-12T12:32:49;1.30;;;0.88;;
45049;SDS011;61798;48.048;-1.928;2023-09-12T12:34:57;1.90;;;0.90;;
45049;SDS011;61798;48.048;-1.928;2023-09-12T12:37:03;1.08;;;0.88;;
45049;SDS011;61798;48.048;-1.928;2023-09-12T12:39:10;1.85;;;1.20;;
45049;SDS011;61798;48.048;-1.928;2023-09-12T12:41:21;2.42;;;0.85;;
45049;SDS011;61798;48.048;-1.928;2023-09-12T12:43:31;4.10;;;1.20;;
45049;SDS011;61798;48.048;-1.928;2023-09-12T12:45:37;1.60;;;0.98;;
45049;SDS011;61798;48.048;-1.928;2023-09-12T12:47:44;2.65;;;0.90;;
45049;SDS011;61798;48.048;-1.928;2023-09-12T12:49:53;4.07;;;1.30;;
45049;SDS011;61798;48.048;-1.928;2023-09-12T12:51:59;1.77;;;1.00;;
45049;SDS011;61798;48.048;-1.928;2023-09-12T12:54:08;11.68;;;1.67;;
45049;SDS011;61798;48.048;-1.928;2023-09-12T12:56:14;2.58;;;1.20;;
45049;SDS011;61798;48.048;-1.928;2023-09-12T12:58:22;5.95;;;1.58;;